sensor_id;sensor_type;location;lat;lon;timestamp;pressure;altitude;pressure_sealevel;temperature;humidity
50484;BME280;36409;52.168;20.878;2023-10-31T00:01:35;99309.27;;;9.97;77.14
50484;BME280;36409;52.168;20.878;2023-10-31T00:04:05;99310.22;;;9.95;77.33
50484;BME280;36409;52.168;20.878;2023-10-31T00:06:35;99303.32;;;9.92;78.19
50484;BME280;36409;52.168;20.878;2023-10-31T00:09:04;99300.77;;;9.91;77.81
50484;BME280;36409;52.168;20.878;2023-10-31T00:11:34;99299.95;;;9.88;78.15
50484;BME280;36409;52.168;20.878;2023-10-31T00:14:03;99310.44;;;9.87;77.31
50484;BME280;36409;52.168;20.878;2023-10-31T00:16:55;99290.56;;;9.83;77.42
50484;BME280;36409;52.168;20.878;2023-10-31T00:19:24;99296.66;;;9.82;78.36
50484;BME280;36409;52.168;20.878;2023-10-31T00:21:53;99287.19;;;9.79;78.22
50484;BME280;36409;52.168;20.878;2023-10-31T00:24:22;99287.19;;;9.79;77.63
50484;BME280;36409;52.168;20.878;2023-10-31T00:26:53;99283.74;;;9.79;78.32
50484;BME280;36409;52.168;20.878;2023-10-31T00:29:22;99271.61;;;9.78;77.64
50484;BME280;36409;52.168;20.878;2023-10-31T00:31:56;99274.29;;;9.74;78.58
50484;BME280;36409;52.168;20.878;2023-10-31T00:34:25;99264.70;;;9.75;78.25
50484;BME280;36409;52.168;20.878;2023-10-31T00:36:56;99266.47;;;9.74;77.78
50484;BME280;36409;52.168;20.878;2023-10-31T00:39:27;99262.16;;;9.73;77.73
50484;BME280;36409;52.168;20.878;2023-10-31T00:41:56;99257.00;;;9.72;78.19
50484;BME280;36409;52.168;20.878;2023-10-31T00:44:39;99255.31;;;9.69;78.02
50484;BME280;36409;52.168;20.878;2023-10-31T00:47:08;99255.31;;;9.69;78.27
50484;BME280;36409;52.168;20.878;2023-10-31T00:49:37;99250.97;;;9.70;77.64
50484;BME280;36409;52.168;20.878;2023-10-31T00:52:09;99238.89;;;9.67;77.73
50484;BME280;36409;52.168;20.878;2023-10-31T00:54:39;99231.16;;;9.64;78.65
50484;BME280;36409;52.168;20.878;2023-10-31T00:57:08;99231.23;;;9.61;78.30
50484;BME280;36409;52.168;20.878;2023-10-31T00:59:37;99227.00;;;9.57;78.10
50484;BME280;36409;52.168;20.878;2023-10-31T01:02:07;99221.78;;;9.57;78.23
50484;BME280;36409;52.168;20.878;2023-10-31T01:04:40;99212.31;;;9.54;78.21
50484;BME280;36409;52.168;20.878;2023-10-31T01:07:10;99202.84;;;9.52;78.28
50484;BME280;36409;52.168;20.878;2023-10-31T01:09:40;99194.22;;;9.50;78.77
50484;BME280;36409;52.168;20.878;2023-10-31T01:12:11;99182.95;;;9.49;78.01
50484;BME280;36409;52.168;20.878;2023-10-31T01:14:44;99179.48;;;9.49;77.81
50484;BME280;36409;52.168;20.878;2023-10-31T01:17:14;99173.38;;;9.50;78.59
50484;BME280;36409;52.168;20.878;2023-10-31T01:19:43;99169.03;;;9.50;78.62
50484;BME280;36409;52.168;20.878;2023-10-31T01:22:13;99179.41;;;9.52;78.06
50484;BME280;36409;52.168;20.878;2023-10-31T01:24:42;99173.35;;;9.51;78.41
50484;BME280;36409;52.168;20.878;2023-10-31T01:27:11;99169.87;;;9.51;78.63
50484;BME280;36409;52.168;20.878;2023-10-31T01:29:40;99162.06;;;9.51;78.67
50484;BME280;36409;52.168;20.878;2023-10-31T01:32:14;99175.98;;;9.50;78.24
50484;BME280;36409;52.168;20.878;2023-10-31T01:34:50;99176.85;;;9.50;78.92
50484;BME280;36409;52.168;20.878;2023-10-31T01:37:23;99182.01;;;9.52;78.50
50484;BME280;36409;52.168;20.878;2023-10-31T01:40:08;99181.11;;;9.53;79.13
50484;BME280;36409;52.168;20.878;2023-10-31T01:42:38;99171.53;;;9.53;78.87
50484;BME280;36409;52.168;20.878;2023-10-31T01:45:10;99148.14;;;9.52;78.53
50484;BME280;36409;52.168;20.878;2023-10-31T01:47:41;99129.97;;;9.50;78.72
50484;BME280;36409;52.168;20.878;2023-10-31T01:50:14;99113.47;;;9.50;79.18
50484;BME280;36409;52.168;20.878;2023-10-31T01:52:44;99093.52;;;9.49;78.26
50484;BME280;36409;52.168;20.878;2023-10-31T01:55:17;99089.19;;;9.49;78.68
50484;BME280;36409;52.168;20.878;2023-10-31T01:57:51;99089.13;;;9.51;78.66
50484;BME280;36409;52.168;20.878;2023-10-31T02:00:21;99089.94;;;9.53;78.74
50484;BME280;36409;52.168;20.878;2023-10-31T02:02:52;99076.91;;;9.53;79.47
50484;BME280;36409;52.168;20.878;2023-10-31T02:05:25;99065.54;;;9.55;79.44
50484;BME280;36409;52.168;20.878;2023-10-31T02:08:01;99053.33;;;9.57;78.64
50484;BME280;36409;52.168;20.878;2023-10-31T02:10:33;99057.58;;;9.60;78.89
50484;BME280;36409;52.168;20.878;2023-10-31T02:13:11;99060.09;;;9.63;79.51
50484;BME280;36409;52.168;20.878;2023-10-31T02:15:40;99047.88;;;9.65;79.97
50484;BME280;36409;52.168;20.878;2023-10-31T02:18:09;99045.16;;;9.68;79.71
50484;BME280;36409;52.168;20.878;2023-10-31T02:20:40;99032.94;;;9.70;79.83
50484;BME280;36409;52.168;20.878;2023-10-31T02:23:11;99023.33;;;9.72;79.79
50484;BME280;36409;52.168;20.878;2023-10-31T02:25:40;99020.63;;;9.76;79.86
50484;BME280;36409;52.168;20.878;2023-10-31T02:28:09;99020.55;;;9.79;79.68
50484;BME280;36409;52.168;20.878;2023-10-31T02:30:40;99019.58;;;9.81;79.56
50484;BME280;36409;52.168;20.878;2023-10-31T02:33:09;99014.31;;;9.83;79.52
50484;BME280;36409;52.168;20.878;2023-10-31T02:35:39;99016.82;;;9.86;79.40
50484;BME280;36409;52.168;20.878;2023-10-31T02:38:09;99015.02;;;9.88;79.62
50484;BME280;36409;52.168;20.878;2023-10-31T02:40:38;99008.02;;;9.90;80.20
50484;BME280;36409;52.168;20.878;2023-10-31T02:43:08;98994.86;;;9.93;79.94
50484;BME280;36409;52.168;20.878;2023-10-31T02:45:39;98999.14;;;9.96;80.45
50484;BME280;36409;52.168;20.878;2023-10-31T02:48:23;98994.70;;;9.98;79.94
50484;BME280;36409;52.168;20.878;2023-10-31T02:50:53;98983.22;;;10.03;79.67
50484;BME280;36409;52.168;20.878;2023-10-31T02:53:23;98970.08;;;10.07;79.89
50484;BME280;36409;52.168;20.878;2023-10-31T02:55:56;98974.30;;;10.11;80.25
50484;BME280;36409;52.168;20.878;2023-10-31T02:58:28;98975.88;;;10.15;79.44
50484;BME280;36409;52.168;20.878;2023-10-31T03:01:04;98959.23;;;10.19;80.01
50484;BME280;36409;52.168;20.878;2023-10-31T03:03:37;98955.66;;;10.22;79.73
50484;BME280;36409;52.168;20.878;2023-10-31T03:06:07;98960.77;;;10.25;80.76
50484;BME280;36409;52.168;20.878;2023-10-31T03:08:40;98956.30;;;10.28;80.06
50484;BME280;36409;52.168;20.878;2023-10-31T03:11:09;98952.69;;;10.32;80.56
50484;BME280;36409;52.168;20.878;2023-10-31T03:13:54;98950.81;;;10.36;80.51
50484;BME280;36409;52.168;20.878;2023-10-31T03:16:25;98944.63;;;10.40;80.87
50484;BME280;36409;52.168;20.878;2023-10-31T03:18:54;98941.05;;;10.43;80.25
50484;BME280;36409;52.168;20.878;2023-10-31T03:21:25;98940.03;;;10.47;80.21
50484;BME280;36409;52.168;20.878;2023-10-31T03:23:55;98941.60;;;10.51;80.56
50484;BME280;36409;52.168;20.878;2023-10-31T03:26:25;98933.61;;;10.56;80.61
50484;BME280;36409;52.168;20.878;2023-10-31T03:28:56;98929.13;;;10.59;80.37
50484;BME280;36409;52.168;20.878;2023-10-31T03:31:30;98928.95;;;10.64;81.02
50484;BME280;36409;52.168;20.878;2023-10-31T03:34:06;98925.33;;;10.68;80.46
50484;BME280;36409;52.168;20.878;2023-10-31T03:36:35;98911.30;;;10.71;80.86
50484;BME280;36409;52.168;20.878;2023-10-31T03:39:04;98903.37;;;10.74;80.62
50484;BME280;36409;52.168;20.878;2023-10-31T03:41:36;98891.91;;;10.78;80.87
50484;BME280;36409;52.168;20.878;2023-10-31T03:44:06;98890.94;;;10.80;80.96
50484;BME280;36409;52.168;20.878;2023-10-31T03:46:41;98882.13;;;10.83;80.22
50484;BME280;36409;52.168;20.878;2023-10-31T03:49:10;98877.62;;;10.87;81.03
50484;BME280;36409;52.168;20.878;2023-10-31T03:51:39;98862.77;;;10.89;80.35
50484;BME280;36409;52.168;20.878;2023-10-31T03:54:11;98861.81;;;10.91;80.94
50484;BME280;36409;52.168;20.878;2023-10-31T03:56:47;98856.45;;;10.94;80.15
50484;BME280;36409;52.168;20.878;2023-10-31T03:59:18;98853.73;;;10.97;80.05
50484;BME280;36409;52.168;20.878;2023-10-31T04:01:52;98854.45;;;11.01;80.84
50484;BME280;36409;52.168;20.878;2023-10-31T04:04:22;98835.20;;;11.04;81.04
50484;BME280;36409;52.168;20.878;2023-10-31T04:06:56;98834.24;;;11.06;81.26
50484;BME280;36409;52.168;20.878;2023-10-31T04:09:25;98834.09;;;11.09;80.74
50484;BME280;36409;52.168;20.878;2023-10-31T04:11:56;98839.16;;;11.14;81.31
50484;BME280;36409;52.168;20.878;2023-10-31T04:14:25;98845.94;;;11.18;81.20
50484;BME280;36409;52.168;20.878;2023-10-31T04:16:54;98842.30;;;11.22;80.20
50484;BME280;36409;52.168;20.878;2023-10-31T04:19:23;98826.44;;;11.27;81.26
50484;BME280;36409;52.168;20.878;2023-10-31T04:21:55;98796.67;;;11.31;80.49
50484;BME280;36409;52.168;20.878;2023-10-31T04:24:25;98806.97;;;11.34;80.12
50484;BME280;36409;52.168;20.878;2023-10-31T04:26:55;98818.13;;;11.38;80.52
50484;BME280;36409;52.168;20.878;2023-10-31T04:29:24;98815.28;;;11.44;80.59
50484;BME280;36409;52.168;20.878;2023-10-31T04:31:53;98816.86;;;11.48;80.92
50484;BME280;36409;52.168;20.878;2023-10-31T04:34:25;98805.34;;;11.52;80.52
50484;BME280;36409;52.168;20.878;2023-10-31T04:36:54;98797.37;;;11.55;80.59
50484;BME280;36409;52.168;20.878;2023-10-31T04:39:23;98785.94;;;11.58;81.24
50484;BME280;36409;52.168;20.878;2023-10-31T04:41:52;98773.58;;;11.62;80.23
50484;BME280;36409;52.168;20.878;2023-10-31T04:44:23;98766.45;;;11.65;80.82
50484;BME280;36409;52.168;20.878;2023-10-31T04:46:57;98763.70;;;11.68;80.42
50484;BME280;36409;52.168;20.878;2023-10-31T04:49:28;98766.27;;;11.70;80.45
50484;BME280;36409;52.168;20.878;2023-10-31T04:51:59;98754.83;;;11.72;80.78
50484;BME280;36409;52.168;20.878;2023-10-31T04:54:28;98753.75;;;11.77;80.33
50484;BME280;36409;52.168;20.878;2023-10-31T04:57:00;98738.02;;;11.78;80.21
50484;BME280;36409;52.168;20.878;2023-10-31T04:59:29;98737.89;;;11.81;80.93
50484;BME280;36409;52.168;20.878;2023-10-31T05:02:03;98729.97;;;11.83;80.71
50484;BME280;36409;52.168;20.878;2023-10-31T05:04:34;98719.38;;;11.86;80.08
50484;BME280;36409;52.168;20.878;2023-10-31T05:07:03;98707.92;;;11.88;80.09
50484;BME280;36409;52.168;20.878;2023-10-31T05:09:33;98700.78;;;11.92;80.24
50484;BME280;36409;52.168;20.878;2023-10-31T05:12:03;98709.33;;;11.96;80.71
50484;BME280;36409;52.168;20.878;2023-10-31T05:14:33;98699.55;;;12.01;80.01
50484;BME280;36409;52.168;20.878;2023-10-31T05:17:08;98704.56;;;12.05;80.17
50484;BME280;36409;52.168;20.878;2023-10-31T05:19:37;98701.81;;;12.09;80.75
50484;BME280;36409;52.168;20.878;2023-10-31T05:22:06;98704.26;;;12.12;80.05
50484;BME280;36409;52.168;20.878;2023-10-31T05:24:35;98695.45;;;12.14;80.51
50484;BME280;36409;52.168;20.878;2023-10-31T05:27:07;98704.91;;;12.17;80.42
50484;BME280;36409;52.168;20.878;2023-10-31T05:29:41;98699.45;;;12.22;80.06
50484;BME280;36409;52.168;20.878;2023-10-31T05:32:11;98699.31;;;12.25;80.38
50484;BME280;36409;52.168;20.878;2023-10-31T05:34:40;98701.71;;;12.29;80.13
50484;BME280;36409;52.168;20.878;2023-10-31T05:37:10;98700.70;;;12.32;79.80
50484;BME280;36409;52.168;20.878;2023-10-31T05:39:45;98707.55;;;12.34;80.35
50484;BME280;36409;52.168;20.878;2023-10-31T05:42:15;98712.56;;;12.39;80.32
50484;BME280;36409;52.168;20.878;2023-10-31T05:44:44;98710.67;;;12.43;79.38
50484;BME280;36409;52.168;20.878;2023-10-31T05:47:14;98706.97;;;12.47;80.09
50484;BME280;36409;52.168;20.878;2023-10-31T05:53:23;98697.00;;;12.55;79.47
50484;BME280;36409;52.168;20.878;2023-10-31T05:56:09;98694.16;;;12.60;79.65
50484;BME280;36409;52.168;20.878;2023-10-31T05:59:19;98687.83;;;12.64;79.07
50484;BME280;36409;52.168;20.878;2023-10-31T06:01:51;98696.37;;;12.67;79.55
50484;BME280;36409;52.168;20.878;2023-10-31T06:04:21;98698.01;;;12.70;79.85
50484;BME280;36409;52.168;20.878;2023-10-31T06:06:52;98707.23;;;12.77;79.41
50484;BME280;36409;52.168;20.878;2023-10-31T06:09:21;98712.25;;;12.82;78.91
50484;BME280;36409;52.168;20.878;2023-10-31T06:11:51;98716.41;;;12.86;79.28
50484;BME280;36409;52.168;20.878;2023-10-31T06:14:22;98711.00;;;12.89;78.71
50484;BME280;36409;52.168;20.878;2023-10-31T06:16:52;98702.17;;;12.92;78.75
50484;BME280;36409;52.168;20.878;2023-10-31T06:19:27;98693.39;;;12.93;79.19
50484;BME280;36409;52.168;20.878;2023-10-31T06:21:59;98700.15;;;12.97;78.78
50484;BME280;36409;52.168;20.878;2023-10-31T06:24:28;98697.53;;;12.97;79.16
50484;BME280;36409;52.168;20.878;2023-10-31T06:26:58;98718.48;;;12.97;78.34
50484;BME280;36409;52.168;20.878;2023-10-31T06:29:29;98701.94;;;12.96;78.15
50484;BME280;36409;52.168;20.878;2023-10-31T06:32:20;98712.32;;;12.98;78.63
50484;BME280;36409;52.168;20.878;2023-10-31T06:34:50;98689.53;;;13.00;78.40
50484;BME280;36409;52.168;20.878;2023-10-31T06:37:19;98697.38;;;13.00;78.38
50484;BME280;36409;52.168;20.878;2023-10-31T06:39:51;98697.23;;;13.03;78.43
50484;BME280;36409;52.168;20.878;2023-10-31T06:42:20;98694.38;;;13.08;78.60
50484;BME280;36409;52.168;20.878;2023-10-31T06:44:49;98681.13;;;13.11;78.21
50484;BME280;36409;52.168;20.878;2023-10-31T06:47:18;98692.30;;;13.15;78.22
50484;BME280;36409;52.168;20.878;2023-10-31T06:49:47;98713.16;;;13.16;78.41
50484;BME280;36409;52.168;20.878;2023-10-31T06:52:16;98686.97;;;13.16;77.91
50484;BME280;36409;52.168;20.878;2023-10-31T06:54:45;98709.71;;;13.16;77.71
50484;BME280;36409;52.168;20.878;2023-10-31T06:57:15;98688.66;;;13.17;78.31
50484;BME280;36409;52.168;20.878;2023-10-31T06:59:48;98693.91;;;13.17;78.08
50484;BME280;36409;52.168;20.878;2023-10-31T07:02:20;98688.66;;;13.17;77.35
50484;BME280;36409;52.168;20.878;2023-10-31T07:04:52;98685.95;;;13.19;77.82
50484;BME280;36409;52.168;20.878;2023-10-31T07:07:22;98692.12;;;13.18;77.52
50484;BME280;36409;52.168;20.878;2023-10-31T07:09:55;98682.50;;;13.18;78.02
50484;BME280;36409;52.168;20.878;2023-10-31T07:12:26;98673.78;;;13.18;77.54
50484;BME280;36409;52.168;20.878;2023-10-31T07:15:01;98686.82;;;13.19;77.96
50484;BME280;36409;52.168;20.878;2023-10-31T07:17:33;98689.28;;;13.22;77.62
50484;BME280;36409;52.168;20.878;2023-10-31T07:20:08;98676.01;;;13.25;77.59
50484;BME280;36409;52.168;20.878;2023-10-31T07:22:38;98664.55;;;13.28;77.60
50484;BME280;36409;52.168;20.878;2023-10-31T07:25:09;98669.60;;;13.31;77.08
50484;BME280;36409;52.168;20.878;2023-10-31T07:27:38;98658.13;;;13.34;77.55
50484;BME280;36409;52.168;20.878;2023-10-31T07:30:09;98651.02;;;13.36;77.60
50484;BME280;36409;52.168;20.878;2023-10-31T07:32:40;98656.09;;;13.39;77.73
50484;BME280;36409;52.168;20.878;2023-10-31T07:35:10;98650.80;;;13.40;77.91
50484;BME280;36409;52.168;20.878;2023-10-31T07:37:41;98655.05;;;13.43;77.46
50484;BME280;36409;52.168;20.878;2023-10-31T07:40:13;98652.24;;;13.46;77.45
50484;BME280;36409;52.168;20.878;2023-10-31T07:42:42;98652.19;;;13.48;77.80
50484;BME280;36409;52.168;20.878;2023-10-31T07:45:11;98663.50;;;13.48;77.41
50484;BME280;36409;52.168;20.878;2023-10-31T07:47:41;98664.36;;;13.49;77.56
50484;BME280;36409;52.168;20.878;2023-10-31T07:50:11;98671.30;;;13.50;77.38
50484;BME280;36409;52.168;20.878;2023-10-31T07:52:41;98672.91;;;13.52;76.93
50484;BME280;36409;52.168;20.878;2023-10-31T07:55:12;98638.73;;;13.54;76.77
50484;BME280;36409;52.168;20.878;2023-10-31T07:57:43;98631.64;;;13.56;76.82
50484;BME280;36409;52.168;20.878;2023-10-31T08:00:16;98621.92;;;13.58;76.75
50484;BME280;36409;52.168;20.878;2023-10-31T08:02:47;98626.08;;;13.62;77.01
50484;BME280;36409;52.168;20.878;2023-10-31T08:05:19;98634.52;;;13.67;77.58
50484;BME280;36409;52.168;20.878;2023-10-31T08:07:51;98624.81;;;13.69;77.47
50484;BME280;36409;52.168;20.878;2023-10-31T08:10:23;98634.37;;;13.70;76.93
50484;BME280;36409;52.168;20.878;2023-10-31T08:12:52;98628.77;;;13.77;77.37
50484;BME280;36409;52.168;20.878;2023-10-31T08:15:22;98623.20;;;13.83;76.61
50484;BME280;36409;52.168;20.878;2023-10-31T08:17:53;98630.63;;;13.90;76.74
50484;BME280;36409;52.168;20.878;2023-10-31T08:20:24;98625.89;;;13.97;76.60
50484;BME280;36409;52.168;20.878;2023-10-31T08:22:54;98630.71;;;14.05;76.89
50484;BME280;36409;52.168;20.878;2023-10-31T08:25:26;98610.33;;;14.10;76.65
50484;BME280;36409;52.168;20.878;2023-10-31T08:27:56;98616.80;;;14.19;76.19
50484;BME280;36409;52.168;20.878;2023-10-31T08:33:12;98606.53;;;14.46;76.37
50484;BME280;36409;52.168;20.878;2023-10-31T08:35:43;98620.80;;;14.57;76.18
50484;BME280;36409;52.168;20.878;2023-10-31T08:38:12;98615.08;;;14.64;76.00
50484;BME280;36409;52.168;20.878;2023-10-31T08:40:55;98622.37;;;14.75;76.29
50484;BME280;36409;52.168;20.878;2023-10-31T08:43:24;98620.98;;;14.84;75.55
50484;BME280;36409;52.168;20.878;2023-10-31T08:45:57;98629.34;;;14.91;75.67
50484;BME280;36409;52.168;20.878;2023-10-31T08:48:28;98628.97;;;14.97;75.20
50484;BME280;36409;52.168;20.878;2023-10-31T08:51:01;98608.70;;;14.99;75.46
50484;BME280;36409;52.168;20.878;2023-10-31T08:53:30;98618.17;;;15.02;75.03
50484;BME280;36409;52.168;20.878;2023-10-31T08:56:02;98613.68;;;15.04;75.12
50484;BME280;36409;52.168;20.878;2023-10-31T08:58:34;98605.52;;;15.08;75.10
50484;BME280;36409;52.168;20.878;2023-10-31T09:01:07;98611.42;;;15.12;74.47
50484;BME280;36409;52.168;20.878;2023-10-31T09:03:37;98610.31;;;15.16;74.74
50484;BME280;36409;52.168;20.878;2023-10-31T09:06:07;98614.53;;;15.19;74.58
50484;BME280;36409;52.168;20.878;2023-10-31T09:08:36;98617.91;;;15.21;73.87
50484;BME280;36409;52.168;20.878;2023-10-31T09:11:15;98611.72;;;15.22;74.40
50484;BME280;36409;52.168;20.878;2023-10-31T09:13:44;98610.86;;;15.21;73.74
50484;BME280;36409;52.168;20.878;2023-10-31T09:16:13;98607.40;;;15.21;73.49
50484;BME280;36409;52.168;20.878;2023-10-31T09:18:45;98602.97;;;15.21;73.30
50484;BME280;36409;52.168;20.878;2023-10-31T09:21:17;98617.05;;;15.20;73.70
50484;BME280;36409;52.168;20.878;2023-10-31T09:23:47;98612.66;;;15.21;73.43
50484;BME280;36409;52.168;20.878;2023-10-31T09:26:16;98616.88;;;15.23;73.63
50484;BME280;36409;52.168;20.878;2023-10-31T09:28:46;98610.68;;;15.24;73.39
50484;BME280;36409;52.168;20.878;2023-10-31T09:31:19;98616.69;;;15.26;73.26
50484;BME280;36409;52.168;20.878;2023-10-31T09:33:49;98616.69;;;15.26;73.18
50484;BME280;36409;52.168;20.878;2023-10-31T09:36:20;98626.34;;;15.26;72.91
50484;BME280;36409;52.168;20.878;2023-10-31T09:38:49;98617.62;;;15.25;72.93
50484;BME280;36409;52.168;20.878;2023-10-31T09:41:19;98628.14;;;15.25;72.83
50484;BME280;36409;52.168;20.878;2023-10-31T09:43:52;98629.66;;;15.29;72.71
50484;BME280;36409;52.168;20.878;2023-10-31T09:46:23;98630.30;;;15.33;72.40
50484;BME280;36409;52.168;20.878;2023-10-31T09:48:54;98626.45;;;15.39;72.52
50484;BME280;36409;52.168;20.878;2023-10-31T09:51:24;98635.82;;;15.43;72.25
50484;BME280;36409;52.168;20.878;2023-10-31T09:53:55;98631.13;;;15.48;72.55
50484;BME280;36409;52.168;20.878;2023-10-31T09:56:33;98620.22;;;15.54;72.30
50484;BME280;36409;52.168;20.878;2023-10-31T09:59:15;98619.86;;;15.60;71.92
50484;BME280;36409;52.168;20.878;2023-10-31T10:01:45;98613.37;;;15.66;71.91
50484;BME280;36409;52.168;20.878;2023-10-31T10:04:15;98617.58;;;15.69;72.08
50484;BME280;36409;52.168;20.878;2023-10-31T10:06:52;98619.27;;;15.70;72.02
50484;BME280;36409;52.168;20.878;2023-10-31T10:09:30;98622.55;;;15.73;71.65
50484;BME280;36409;52.168;20.878;2023-10-31T10:12:03;98620.67;;;15.75;71.79
50484;BME280;36409;52.168;20.878;2023-10-31T10:14:34;98622.92;;;15.82;71.48
50484;BME280;36409;52.168;20.878;2023-10-31T10:17:15;98619.09;;;15.87;71.74
50484;BME280;36409;52.168;20.878;2023-10-31T10:19:44;98627.22;;;15.97;71.56
50484;BME280;36409;52.168;20.878;2023-10-31T10:22:20;98631.05;;;16.06;71.72
50484;BME280;36409;52.168;20.878;2023-10-31T10:24:57;98634.89;;;16.15;71.32
50484;BME280;36409;52.168;20.878;2023-10-31T10:27:26;98637.94;;;16.21;71.42
50484;BME280;36409;52.168;20.878;2023-10-31T10:29:57;98632.30;;;16.28;71.25
50484;BME280;36409;52.168;20.878;2023-10-31T10:32:36;98624.64;;;16.38;71.52
50484;BME280;36409;52.168;20.878;2023-10-31T10:35:07;98636.25;;;16.48;71.62
50484;BME280;36409;52.168;20.878;2023-10-31T10:37:38;98633.64;;;16.61;70.70
50484;BME280;36409;52.168;20.878;2023-10-31T10:40:11;98636.28;;;16.74;70.85
50484;BME280;36409;52.168;20.878;2023-10-31T10:42:46;98629.36;;;16.86;70.87
50484;BME280;36409;52.168;20.878;2023-10-31T10:45:16;98630.62;;;16.93;70.71
50484;BME280;36409;52.168;20.878;2023-10-31T10:47:49;98622.43;;;16.97;70.69
50484;BME280;36409;52.168;20.878;2023-10-31T10:50:22;98623.80;;;17.03;70.46
50484;BME280;36409;52.168;20.878;2023-10-31T10:53:07;98621.80;;;17.07;70.49
50484;BME280;36409;52.168;20.878;2023-10-31T10:55:42;98631.19;;;17.11;70.27
50484;BME280;36409;52.168;20.878;2023-10-31T10:58:25;98624.02;;;17.13;70.18
50484;BME280;36409;52.168;20.878;2023-10-31T11:00:57;98640.58;;;17.15;70.42
50484;BME280;36409;52.168;20.878;2023-10-31T11:03:28;98636.88;;;17.18;70.26
50484;BME280;36409;52.168;20.878;2023-10-31T11:06:00;98642.03;;;17.19;69.89
50484;BME280;36409;52.168;20.878;2023-10-31T11:08:33;98638.25;;;17.23;69.81
50484;BME280;36409;52.168;20.878;2023-10-31T11:11:05;98647.73;;;17.26;69.60
50484;BME280;36409;52.168;20.878;2023-10-31T11:13:35;98656.50;;;17.26;70.18
50484;BME280;36409;52.168;20.878;2023-10-31T11:16:11;98649.74;;;17.22;69.55
50484;BME280;36409;52.168;20.878;2023-10-31T11:18:43;98656.16;;;17.18;69.79
50484;BME280;36409;52.168;20.878;2023-10-31T11:21:12;98662.50;;;17.16;69.70
50484;BME280;36409;52.168;20.878;2023-10-31T11:23:42;98660.81;;;17.14;69.45
50484;BME280;36409;52.168;20.878;2023-10-31T11:26:11;98654.80;;;17.12;69.12
50484;BME280;36409;52.168;20.878;2023-10-31T11:28:40;98654.91;;;17.11;69.08
50484;BME280;36409;52.168;20.878;2023-10-31T11:31:09;98663.88;;;17.08;68.95
50484;BME280;36409;52.168;20.878;2023-10-31T11:33:41;98668.41;;;17.06;69.10
50484;BME280;36409;52.168;20.878;2023-10-31T11:36:12;98669.35;;;17.05;69.29
50484;BME280;36409;52.168;20.878;2023-10-31T11:38:42;98663.33;;;17.03;69.08
50484;BME280;36409;52.168;20.878;2023-10-31T11:41:12;98653.73;;;17.02;69.21
50484;BME280;36409;52.168;20.878;2023-10-31T11:43:55;98659.13;;;17.01;69.29
50484;BME280;36409;52.168;20.878;2023-10-31T11:46:29;98661.02;;;16.98;69.15
50484;BME280;36409;52.168;20.878;2023-10-31T11:49:00;98662.70;;;17.00;69.10
50484;BME280;36409;52.168;20.878;2023-10-31T11:51:30;98669.66;;;17.01;69.06
50484;BME280;36409;52.168;20.878;2023-10-31T11:54:02;98673.98;;;17.02;68.79
50484;BME280;36409;52.168;20.878;2023-10-31T11:56:34;98687.16;;;17.02;69.11
50484;BME280;36409;52.168;20.878;2023-10-31T11:59:05;98688.94;;;17.01;68.97
50484;BME280;36409;52.168;20.878;2023-10-31T12:01:45;98692.55;;;17.13;69.29
50484;BME280;36409;52.168;20.878;2023-10-31T12:04:22;98691.59;;;17.40;69.45
50484;BME280;36409;52.168;20.878;2023-10-31T12:07:00;98703.52;;;17.58;69.13
50484;BME280;36409;52.168;20.878;2023-10-31T12:09:29;98692.44;;;17.66;69.13
50484;BME280;36409;52.168;20.878;2023-10-31T12:12:01;98697.80;;;17.78;68.82
50484;BME280;36409;52.168;20.878;2023-10-31T12:14:33;98698.84;;;17.75;68.77
50484;BME280;36409;52.168;20.878;2023-10-31T12:17:05;98689.80;;;17.66;68.70
50484;BME280;36409;52.168;20.878;2023-10-31T12:19:35;98699.40;;;17.54;68.57
50484;BME280;36409;52.168;20.878;2023-10-31T12:22:14;98691.69;;;17.51;68.22
50484;BME280;36409;52.168;20.878;2023-10-31T12:24:45;98698.77;;;17.51;68.55
50484;BME280;36409;52.168;20.878;2023-10-31T12:27:17;98691.48;;;17.54;68.41
50484;BME280;36409;52.168;20.878;2023-10-31T12:29:46;98696.88;;;17.53;68.65
50484;BME280;36409;52.168;20.878;2023-10-31T12:32:16;98710.47;;;17.47;68.53
50484;BME280;36409;52.168;20.878;2023-10-31T12:34:47;98708.39;;;17.39;68.51
50484;BME280;36409;52.168;20.878;2023-10-31T12:37:18;98711.86;;;17.26;68.14
50484;BME280;36409;52.168;20.878;2023-10-31T12:39:48;98725.12;;;17.12;68.17
50484;BME280;36409;52.168;20.878;2023-10-31T12:42:18;98728.70;;;16.98;68.31
50484;BME280;36409;52.168;20.878;2023-10-31T12:44:51;98720.63;;;16.87;68.17
50484;BME280;36409;52.168;20.878;2023-10-31T12:47:22;98717.86;;;16.75;68.29
50484;BME280;36409;52.168;20.878;2023-10-31T12:50:11;98720.36;;;16.64;68.35
50484;BME280;36409;52.168;20.878;2023-10-31T12:52:49;98729.59;;;16.57;68.32
50484;BME280;36409;52.168;20.878;2023-10-31T12:55:30;98736.09;;;16.51;68.60
50484;BME280;36409;52.168;20.878;2023-10-31T12:58:09;98753.99;;;16.46;68.24
50484;BME280;36409;52.168;20.878;2023-10-31T13:00:43;98753.43;;;16.41;68.53
50484;BME280;36409;52.168;20.878;2023-10-31T13:03:14;98765.13;;;16.36;68.50
50484;BME280;36409;52.168;20.878;2023-10-31T13:05:49;98777.72;;;16.31;68.68
50484;BME280;36409;52.168;20.878;2023-10-31T13:08:19;98781.58;;;16.26;68.47
50484;BME280;36409;52.168;20.878;2023-10-31T13:11:01;98772.09;;;16.23;68.68
50484;BME280;36409;52.168;20.878;2023-10-31T13:13:40;98778.19;;;16.24;68.77
50484;BME280;36409;52.168;20.878;2023-10-31T13:16:11;98771.98;;;16.25;68.51
50484;BME280;36409;52.168;20.878;2023-10-31T13:18:41;98769.28;;;16.26;68.84
50484;BME280;36409;52.168;20.878;2023-10-31T13:21:11;98785.15;;;16.25;68.84
50484;BME280;36409;52.168;20.878;2023-10-31T13:23:42;98783.45;;;16.24;68.83